createdAt,value
2022-12-15T00:02:44.669Z,65.9
2022-12-15T00:08:22.714Z,65.8
2022-12-15T00:13:57.686Z,65.8
2022-12-15T00:19:32.576Z,66
2022-12-15T00:25:07.972Z,66.1
2022-12-15T00:30:44.249Z,65.8
2022-12-15T00:36:25.523Z,65.8
2022-12-15T00:42:01.058Z,65.4
2022-12-15T00:47:58.630Z,64.8
2022-12-15T00:53:32.356Z,67.1
2022-12-15T00:59:09.031Z,66.5
2022-12-15T01:04:44.979Z,66.2
2022-12-15T01:10:20.944Z,65.3
2022-12-15T01:15:56.117Z,65.4
2022-12-15T01:21:31.801Z,65.6
2022-12-15T01:27:07.080Z,65.6
2022-12-15T01:32:46.803Z,67.7
2022-12-15T01:38:21.826Z,68.5
2022-12-15T01:43:56.824Z,68.3
2022-12-15T01:49:54.029Z,68.4
2022-12-15T01:55:27.878Z,69.7
2022-12-15T02:01:03.173Z,70.1
2022-12-15T02:06:40.063Z,70.5
2022-12-15T02:12:14.893Z,69.5
2022-12-15T02:17:50.019Z,68.6
2022-12-15T02:23:25.310Z,68.9
2022-12-15T02:29:00.591Z,69.7
2022-12-15T02:34:36.037Z,69.9
2022-12-15T02:40:12.324Z,71.7
2022-12-15T02:45:48.149Z,72.3
2022-12-15T02:51:24.712Z,72.5
2022-12-15T02:56:59.777Z,73.5
2022-12-15T03:02:35.558Z,73.9
2022-12-15T03:08:11.837Z,74.9
2022-12-15T03:13:50.366Z,74.9
2022-12-15T03:19:25.830Z,75.1
2022-12-15T03:25:00.963Z,75.2
2022-12-15T03:30:37.225Z,75.7
2022-12-15T03:36:12.620Z,75.9
2022-12-15T03:41:47.473Z,76
2022-12-15T03:47:45.156Z,76.6
2022-12-15T03:53:18.055Z,76.9
2022-12-15T03:58:53.371Z,77
2022-12-15T04:04:28.228Z,77
2022-12-15T04:10:03.641Z,77.1
2022-12-15T04:15:40.324Z,77.4
2022-12-15T04:21:15.743Z,77.3
2022-12-15T04:26:51.077Z,77.3
2022-12-15T04:32:28.048Z,77.5
2022-12-15T04:38:03.124Z,77.5
2022-12-15T04:43:38.180Z,77.4
2022-12-15T04:49:34.907Z,77.4
2022-12-15T04:55:07.906Z,77.5
2022-12-15T05:00:42.752Z,77.7
2022-12-15T05:06:17.790Z,77.6
2022-12-15T05:11:53.177Z,77.6
2022-12-15T05:17:30.201Z,77.8
2022-12-15T05:23:08.016Z,78
2022-12-15T05:28:43.267Z,78
2022-12-15T05:34:20.535Z,77.9
2022-12-15T05:39:55.903Z,77.7
2022-12-15T05:45:31.469Z,77.5
2022-12-15T05:51:07.859Z,77.3
2022-12-15T05:56:42.737Z,77.5
2022-12-15T06:02:18.307Z,77.7
2022-12-15T06:07:53.943Z,77.9
2022-12-15T06:13:30.014Z,78
2022-12-15T06:19:09.858Z,78.1
2022-12-15T06:24:44.999Z,78.1
2022-12-15T06:30:20.968Z,78.2
2022-12-15T06:35:57.266Z,78.3
2022-12-15T06:41:53.421Z,78.3
2022-12-15T06:47:50.136Z,78.4
2022-12-15T06:53:24.134Z,78.4
2022-12-15T06:58:59.492Z,78.3
2022-12-15T07:04:35.049Z,79.2
2022-12-15T07:10:10.220Z,84.4
2022-12-15T07:15:45.707Z,86.1
2022-12-15T07:21:21.443Z,86.7
2022-12-15T07:26:56.935Z,87.4
2022-12-15T07:32:32.100Z,88.2
2022-12-15T07:38:06.906Z,88.4
2022-12-15T07:43:42.403Z,88.4
2022-12-15T07:49:17.144Z,89.1
2022-12-15T07:54:53.258Z,89
2022-12-15T08:00:29.815Z,88.4
2022-12-15T08:06:05.117Z,88.7
2022-12-15T08:11:39.981Z,88.7
2022-12-15T08:17:15.361Z,88.1
2022-12-15T08:22:51.716Z,88
2022-12-15T08:28:27.832Z,87.6
2022-12-15T08:34:03.084Z,87.5
2022-12-15T08:39:38.367Z,87.9
2022-12-15T08:45:16.416Z,88.3
2022-12-15T08:50:51.649Z,88.3
2022-12-15T08:56:29.423Z,87.5
2022-12-15T09:02:37.708Z,87.6
2022-12-15T09:08:13.027Z,87.5
2022-12-15T09:13:49.205Z,86.7
2022-12-15T09:19:24.355Z,87.4
2022-12-15T09:24:59.896Z,86.9
2022-12-15T09:30:35.676Z,86.6
2022-12-15T09:36:11.881Z,86.3
2022-12-15T09:41:48.285Z,86.1
2022-12-15T09:47:45.261Z,85.9
2022-12-15T09:53:55.335Z,85.7
2022-12-15T09:59:35.211Z,85.3
2022-12-15T10:05:10.883Z,85.6
2022-12-15T10:10:48.904Z,84.7
2022-12-15T10:16:24.855Z,84.1
2022-12-15T10:22:03.753Z,82
2022-12-15T10:27:39.030Z,80.6
2022-12-15T10:33:19.652Z,80.5
2022-12-15T10:38:57.922Z,81.3
2022-12-15T10:44:37.076Z,80.6
2022-12-15T10:50:12.853Z,81.1
2022-12-15T10:55:50.446Z,80.6
2022-12-15T11:01:26.019Z,78.6
2022-12-15T11:07:03.252Z,78
2022-12-15T11:12:39.015Z,78.2
2022-12-15T11:18:14.726Z,77.4
2022-12-15T11:23:55.207Z,80.1
2022-12-15T11:30:15.806Z,79.2
2022-12-15T11:35:50.970Z,73
2022-12-15T11:41:37.241Z,75.8
2022-12-15T11:47:34.459Z,68.8
2022-12-15T11:53:07.768Z,71.7
2022-12-15T11:58:42.810Z,69.7
2022-12-15T12:04:30.798Z,69.2
2022-12-15T12:10:05.751Z,64.2
2022-12-15T12:15:41.064Z,63.3
2022-12-15T12:21:18.826Z,63.5
2022-12-15T12:26:57.550Z,61.8
2022-12-15T12:32:33.510Z,58.6
2022-12-15T12:38:09.040Z,58.6
2022-12-15T12:43:44.278Z,60.2
2022-12-15T12:49:39.052Z,60.5
2022-12-15T12:55:34.902Z,59.1
2022-12-15T13:01:29.736Z,55.5
2022-12-15T13:07:26.954Z,52.9
2022-12-15T13:13:11.745Z,52.6
2022-12-15T13:18:49.451Z,53.8
2022-12-15T13:24:40.831Z,54.5
2022-12-15T13:30:16.509Z,54.9
2022-12-15T13:35:56.768Z,56
2022-12-15T13:41:31.939Z,58.4
2022-12-15T13:48:10.914Z,63.9
2022-12-15T13:54:07.599Z,65.9
2022-12-15T14:00:28.543Z,64.6
2022-12-15T14:06:04.666Z,61.5
2022-12-15T14:13:31.504Z,58.7
2022-12-15T14:21:29.081Z,56.9
2022-12-15T14:27:04.821Z,63.1
2022-12-15T14:32:43.018Z,61.8
2022-12-15T14:38:20.014Z,65.9
2022-12-15T15:03:18.574Z,67.1
2022-12-15T15:09:02.250Z,69.2
2022-12-15T15:14:37.386Z,69.8
2022-12-15T15:20:12.410Z,69.7
2022-12-15T15:25:47.851Z,70.5
2022-12-15T15:31:42.195Z,72.7
2022-12-15T15:37:59.571Z,74.7
2022-12-15T15:43:55.966Z,73.3
2022-12-15T15:49:49.265Z,75.6
2022-12-15T15:55:28.941Z,75.2
2022-12-15T16:01:18.777Z,74.4
2022-12-15T16:06:55.845Z,76.7
2022-12-15T16:12:31.164Z,77.3
2022-12-15T16:18:06.147Z,77.2
2022-12-15T16:24:04.967Z,77
2022-12-15T16:31:26.175Z,76.1
2022-12-15T16:37:16.736Z,75.8
2022-12-15T16:42:52.807Z,76.1
2022-12-15T16:48:58.048Z,75.7
2022-12-15T16:54:32.348Z,76.6
2022-12-15T17:00:07.308Z,73.8
2022-12-15T17:05:42.391Z,72.7
2022-12-15T17:11:17.588Z,72.3
2022-12-15T17:16:52.337Z,72.1
2022-12-15T17:22:30.634Z,71.6
2022-12-15T17:28:06.689Z,71.2
2022-12-15T17:33:42.484Z,71
2022-12-15T17:39:17.967Z,70.7
2022-12-15T17:44:53.521Z,70.9
2022-12-15T17:50:29.284Z,71
2022-12-15T17:56:04.618Z,71.1
2022-12-15T18:01:40.403Z,71.4
2022-12-15T18:07:17.187Z,71.5
2022-12-15T18:13:21.912Z,71.6
2022-12-15T18:19:10.576Z,72
2022-12-15T18:24:45.633Z,72.9
2022-12-15T18:30:41.684Z,73
2022-12-15T18:36:35.025Z,73.5
2022-12-15T18:42:16.314Z,73.3
2022-12-15T18:47:55.239Z,73.6
2022-12-15T18:53:31.568Z,73.5
2022-12-15T18:59:10.373Z,73.8
2022-12-15T19:04:46.266Z,73.9
2022-12-15T19:10:21.279Z,73.7
2022-12-15T19:15:56.546Z,73.8
2022-12-15T19:21:53.584Z,73.9
2022-12-15T19:27:29.239Z,74
2022-12-15T19:33:04.101Z,74.2
2022-12-15T19:38:39.287Z,74.1
2022-12-15T19:44:16.214Z,74.1
2022-12-15T19:49:52.044Z,74.8
2022-12-15T19:55:30.656Z,75
2022-12-15T20:01:08.248Z,75.1
2022-12-15T20:06:44.300Z,75.2
2022-12-15T20:12:21.602Z,75.7
2022-12-15T20:18:02.607Z,76.4
2022-12-15T20:23:38.019Z,77.1
2022-12-15T20:29:13.242Z,77.4
2022-12-15T20:34:58.401Z,77.7
2022-12-15T20:40:33.159Z,77.9
2022-12-15T20:46:08.905Z,78.3
2022-12-15T20:51:44.395Z,78.4
2022-12-15T20:57:19.998Z,78.5
2022-12-15T21:02:56.486Z,78.6
2022-12-15T21:08:34.070Z,78.6
2022-12-15T21:14:09.546Z,78.8
2022-12-15T21:19:45.306Z,78.8
2022-12-15T21:25:21.254Z,78.8
2022-12-15T21:30:56.940Z,78.9
2022-12-15T21:36:33.412Z,78.9
2022-12-15T21:42:09.024Z,78.8
2022-12-15T21:47:44.110Z,78.9
2022-12-15T21:53:19.188Z,79
2022-12-15T21:58:55.156Z,78.9
2022-12-15T22:04:30.190Z,79
2022-12-15T22:10:04.967Z,78.9
2022-12-15T22:15:40.682Z,78.9
2022-12-15T22:21:17.620Z,79
2022-12-15T22:26:52.752Z,79
2022-12-15T22:32:29.566Z,79
2022-12-15T22:38:04.424Z,79
2022-12-15T22:43:40.038Z,78.9
2022-12-15T22:49:36.973Z,78.8
2022-12-15T22:55:09.695Z,78.7
2022-12-15T23:00:56.294Z,78.6
2022-12-15T23:06:31.603Z,78.6
2022-12-15T23:12:06.328Z,78.5
2022-12-15T23:17:42.748Z,78.3
2022-12-15T23:23:18.798Z,78.2
2022-12-15T23:28:55.710Z,78.2
2022-12-15T23:34:30.865Z,78.1
2022-12-15T23:40:06.207Z,78.1
2022-12-15T23:45:41.282Z,78.2
2022-12-15T23:51:17.181Z,78.3
2022-12-15T23:56:55.206Z,78.4
